createdAt,value
2018-09-02T00:00:42.289Z,97800.28
2018-09-02T00:02:19.708Z,97802.30
2018-09-02T00:03:55.472Z,97799.81
2018-09-02T00:05:30.844Z,97800.33
2018-09-02T00:07:08.817Z,97796.42
2018-09-02T00:08:45.276Z,97796.93
2018-09-02T00:10:21.489Z,97787.64
2018-09-02T00:11:56.735Z,97794.84
2018-09-02T00:14:42.029Z,97795.81
2018-09-02T00:16:20.960Z,97793.68
2018-09-02T00:17:56.188Z,97795.94
2018-09-02T00:19:32.900Z,97798.14
2018-09-02T00:21:08.080Z,97786.52
2018-09-02T00:22:43.309Z,97785.14
2018-09-02T00:24:19.763Z,97793.08
2018-09-02T00:25:56.198Z,97790.34
2018-09-02T00:27:31.146Z,97792.91
2018-09-02T00:29:06.489Z,97787.59
2018-09-02T00:30:43.204Z,97791.88
2018-09-02T00:32:19.842Z,97789.09
2018-09-02T00:33:55.692Z,97784.16
2018-09-02T00:35:34.035Z,97787.94
2018-09-02T00:37:10.121Z,97781.25
2018-09-02T00:38:48.526Z,97780.91
2018-09-02T00:40:24.378Z,97782.70
2018-09-02T00:42:00.057Z,97778.59
2018-09-02T00:43:35.451Z,97780.42
2018-09-02T00:45:12.551Z,97780.05
2018-09-02T00:46:47.917Z,97783.16
2018-09-02T00:48:24.176Z,97780.73
2018-09-02T00:50:00.077Z,97780.31
2018-09-02T00:51:36.210Z,97785.37
2018-09-02T00:53:11.673Z,97786.99
2018-09-02T00:54:47.105Z,97785.20
2018-09-02T00:56:24.827Z,97785.63
2018-09-02T00:58:00.729Z,97793.08
2018-09-02T00:59:36.132Z,97789.48
2018-09-02T01:01:11.465Z,97791.28
2018-09-02T01:02:46.781Z,97786.91
2018-09-02T01:04:24.240Z,97788.53
2018-09-02T01:05:59.918Z,97785.27
2018-09-02T01:07:36.435Z,97782.96
2018-09-02T01:09:12.782Z,97791.96
2018-09-02T01:10:50.080Z,97794.28
2018-09-02T01:12:28.684Z,97795.39
2018-09-02T01:14:04.639Z,97796.17
2018-09-02T01:15:40.394Z,97796.52
2018-09-02T01:17:16.333Z,97797.66
2018-09-02T01:18:55.557Z,97794.37
2018-09-02T01:20:31.160Z,97798.40
2018-09-02T01:22:06.421Z,97803.80
2018-09-02T01:23:41.912Z,97802.20
2018-09-02T01:25:17.297Z,97802.94
2018-09-02T01:26:53.480Z,97800.57
2018-09-02T01:28:28.405Z,97790.63
2018-09-02T01:30:05.345Z,97801.77
2018-09-02T01:31:40.493Z,97798.37
2018-09-02T01:33:16.022Z,97803.61
2018-09-02T01:34:51.934Z,97801.39
2018-09-02T01:36:27.441Z,97798.56
2018-09-02T01:39:12.001Z,97802.85
2018-09-02T01:40:49.359Z,97796.59
2018-09-02T01:42:26.013Z,97804.96
2018-09-02T01:44:01.547Z,97802.71
2018-09-02T01:45:36.738Z,97806.63
2018-09-02T01:47:13.089Z,97806.94
2018-09-02T01:48:48.284Z,97805.44
2018-09-02T01:50:24.123Z,97805.98
2018-09-02T01:51:59.755Z,97808.19
2018-09-02T01:53:35.262Z,97807.68
2018-09-02T01:55:12.223Z,97804.92
2018-09-02T01:56:47.723Z,97801.81
2018-09-02T01:58:25.285Z,97804.36
2018-09-02T02:00:00.696Z,97804.48
2018-09-02T02:01:36.297Z,97803.41
2018-09-02T02:03:11.373Z,97808.44
2018-09-02T02:04:46.642Z,97801.75
2018-09-02T02:06:22.414Z,97802.25
2018-09-02T02:07:57.472Z,97804.78
2018-09-02T02:09:32.820Z,97804.13
2018-09-02T02:11:08.196Z,97805.63
2018-09-02T02:12:43.389Z,97809.02
2018-09-02T02:14:19.380Z,97804.09
2018-09-02T02:15:54.406Z,97802.59
2018-09-02T02:17:29.965Z,97802.78
2018-09-02T02:19:05.597Z,97796.77
2018-09-02T02:20:40.930Z,97797.61
2018-09-02T02:22:16.363Z,97794.76
2018-09-02T02:23:51.945Z,97794.04
2018-09-02T02:25:27.612Z,97802.14
2018-09-02T02:27:03.022Z,97794.18
2018-09-02T02:28:38.401Z,97798.05
2018-09-02T02:30:15.647Z,97788.57
2018-09-02T02:31:50.837Z,97789.41
2018-09-02T02:33:26.037Z,97787.90
2018-09-02T02:35:01.184Z,97791.02
2018-09-02T02:36:36.751Z,97788.93
2018-09-02T02:38:11.964Z,97786.70
2018-09-02T02:39:48.990Z,97782.27
2018-09-02T02:41:24.196Z,97781.70
2018-09-02T02:43:00.021Z,97778.61
2018-09-02T02:44:35.508Z,97781.48
2018-09-02T02:46:11.335Z,97775.10
2018-09-02T02:47:46.335Z,97781.53
2018-09-02T02:49:21.296Z,97778.52
2018-09-02T02:50:56.857Z,97777.84
2018-09-02T02:52:37.714Z,97774.23
2018-09-02T02:54:13.877Z,97778.44
2018-09-02T02:55:50.958Z,97777.21
2018-09-02T02:57:26.032Z,97776.91
2018-09-02T02:59:01.210Z,97770.07
2018-09-02T03:00:37.318Z,97774.95
2018-09-02T03:02:12.549Z,97769.89
2018-09-02T03:03:48.196Z,97769.80
2018-09-02T03:05:24.723Z,97764.84
2018-09-02T03:07:00.491Z,97770.80
2018-09-02T03:08:36.404Z,97767.16
2018-09-02T03:10:11.600Z,97768.39
2018-09-02T03:11:46.896Z,97769.71
2018-09-02T03:13:22.121Z,97768.24
2018-09-02T03:14:57.250Z,97765.25
2018-09-02T03:16:33.163Z,97763.77
2018-09-02T03:18:08.063Z,97758.77
2018-09-02T03:19:43.577Z,97756.68
2018-09-02T03:21:18.655Z,97764.45
2018-09-02T03:22:53.834Z,97759.36
2018-09-02T03:24:29.021Z,97758.71
2018-09-02T03:26:04.980Z,97762.66
2018-09-02T03:27:40.452Z,97759.09
2018-09-02T03:29:15.839Z,97755.27
2018-09-02T03:30:51.101Z,97754.31
2018-09-02T03:32:27.021Z,97751.66
2018-09-02T03:34:02.461Z,97754.98
2018-09-02T03:35:37.307Z,97745.25
2018-09-02T03:37:12.205Z,97747.98
2018-09-02T03:38:47.112Z,97744.70
2018-09-02T03:40:22.466Z,97742.80
2018-09-02T03:41:57.662Z,97744.93
2018-09-02T03:43:32.725Z,97742.98
2018-09-02T03:45:09.160Z,97739.48
2018-09-02T03:46:44.368Z,97741.91
2018-09-02T03:48:21.281Z,97737.05
2018-09-02T03:49:56.262Z,97732.26
2018-09-02T03:51:31.400Z,97744.71
2018-09-02T03:53:06.732Z,97740.51
2018-09-02T03:54:41.932Z,97736.67
2018-09-02T03:56:17.653Z,97742.13
2018-09-02T03:57:53.462Z,97740.99
2018-09-02T03:59:31.884Z,97739.88
2018-09-02T04:01:07.425Z,97733.84
2018-09-02T04:02:44.433Z,97730.73
2018-09-02T04:04:20.435Z,97736.49
2018-09-02T04:05:56.697Z,97730.52
2018-09-02T04:07:32.227Z,97730.86
2018-09-02T04:09:11.127Z,97732.66
2018-09-02T04:10:46.481Z,97734.17
2018-09-02T04:12:22.129Z,97733.58
2018-09-02T04:13:57.780Z,97737.15
2018-09-02T04:15:34.004Z,97734.05
2018-09-02T04:17:09.132Z,97733.84
2018-09-02T04:18:44.877Z,97731.73
2018-09-02T04:20:25.280Z,97737.55
2018-09-02T04:22:00.840Z,97736.63
2018-09-02T04:23:35.941Z,97739.83
2018-09-02T04:25:12.340Z,97735.22
2018-09-02T04:27:03.424Z,97735.33
2018-09-02T04:28:38.729Z,97732.72
2018-09-02T04:30:15.994Z,97735.51
2018-09-02T04:31:50.951Z,97733.80
2018-09-02T04:33:26.314Z,97728.61
2018-09-02T04:35:01.671Z,97729.63
2018-09-02T04:36:37.398Z,97723.22
2018-09-02T04:38:12.975Z,97723.63
2018-09-02T04:39:49.027Z,97719.35
2018-09-02T04:41:24.145Z,97720.86
2018-09-02T04:42:59.429Z,97709.59
2018-09-02T04:44:34.997Z,97716.85
2018-09-02T04:46:11.727Z,97712.77
2018-09-02T04:47:47.500Z,97720.09
2018-09-02T04:49:22.771Z,97716.59
2018-09-02T04:50:59.048Z,97713.31
2018-09-02T04:52:34.622Z,97715.36
2018-09-02T04:54:09.882Z,97712.66
2018-09-02T04:55:46.319Z,97708.70
2018-09-02T04:57:21.830Z,97707.84
2018-09-02T04:58:57.133Z,97712.00
2018-09-02T05:00:32.316Z,97712.17
2018-09-02T05:02:07.617Z,97718.53
2018-09-02T05:03:43.270Z,97711.54
2018-09-02T05:05:18.578Z,97707.26
2018-09-02T05:06:53.851Z,97704.95
2018-09-02T05:08:28.858Z,97701.91
2018-09-02T05:10:04.392Z,97704.36
2018-09-02T05:11:40.330Z,97703.06
2018-09-02T05:13:16.920Z,97704.97
2018-09-02T05:14:52.568Z,97704.47
2018-09-02T05:16:28.194Z,97706.26
2018-09-02T05:18:03.930Z,97704.74
2018-09-02T05:19:39.906Z,97708.42
2018-09-02T05:21:15.592Z,97702.95
2018-09-02T05:22:51.052Z,97708.84
2018-09-02T05:24:26.588Z,97708.68
2018-09-02T05:26:01.952Z,97704.22
2018-09-02T05:27:37.406Z,97708.68
2018-09-02T05:29:13.360Z,97707.22
2018-09-02T05:30:49.409Z,97712.72
2018-09-02T05:32:25.707Z,97706.80
2018-09-02T05:34:02.606Z,97705.92
2018-09-02T05:35:38.278Z,97703.95
2018-09-02T05:37:20.589Z,97704.88
2018-09-02T05:38:59.349Z,97707.63
2018-09-02T05:40:37.326Z,97712.05
2018-09-02T05:42:13.101Z,97707.77
2018-09-02T05:43:52.722Z,97706.06
2018-09-02T05:45:31.301Z,97707.69
2018-09-02T05:47:07.932Z,97707.83
2018-09-02T05:48:43.241Z,97708.83
2018-09-02T05:50:19.033Z,97706.77
2018-09-02T05:51:56.466Z,97706.64
2018-09-02T05:53:32.644Z,97707.06
2018-09-02T05:55:08.537Z,97715.16
2018-09-02T05:56:44.538Z,97714.56
2018-09-02T05:58:24.350Z,97714.66
2018-09-02T06:00:14.662Z,97714.87
2018-09-02T06:01:50.884Z,97710.25
2018-09-02T06:03:27.755Z,97716.67
2018-09-02T06:05:03.346Z,97716.91
2018-09-02T06:06:38.904Z,97714.52
2018-09-02T06:08:15.251Z,97713.81
2018-09-02T06:09:52.690Z,97715.69
2018-09-02T06:11:27.878Z,97708.02
2018-09-02T06:13:04.078Z,97706.14
2018-09-02T06:14:40.005Z,97703.62
2018-09-02T06:16:16.086Z,97707.70
2018-09-02T06:17:53.114Z,97706.29
2018-09-02T06:19:28.739Z,97702.08
2018-09-02T06:21:03.918Z,97703.50
2018-09-02T06:22:39.853Z,97699.23
2018-09-02T06:24:14.997Z,97695.12
2018-09-02T06:25:49.962Z,97702.50
2018-09-02T06:27:25.137Z,97696.98
2018-09-02T06:29:03.445Z,97705.13
2018-09-02T06:30:39.590Z,97704.05
2018-09-02T06:32:14.667Z,97695.09
2018-09-02T06:33:50.141Z,97699.17
2018-09-02T06:35:25.824Z,97700.74
2018-09-02T06:37:02.816Z,97692.73
2018-09-02T06:38:38.075Z,97699.21
2018-09-02T06:40:15.279Z,97694.45
2018-09-02T06:41:50.218Z,97701.94
2018-09-02T06:43:25.684Z,97704.66
2018-09-02T06:45:01.087Z,97699.59
2018-09-02T06:46:36.797Z,97697.89
2018-09-02T06:48:12.087Z,97696.47
2018-09-02T06:49:53.542Z,97702.27
2018-09-02T06:51:29.122Z,97698.99
2018-09-02T06:53:04.765Z,97696.22
2018-09-02T06:54:43.318Z,97696.06
2018-09-02T06:56:20.791Z,97700.00
2018-09-02T06:57:56.417Z,97692.83
2018-09-02T06:59:33.650Z,97693.52
2018-09-02T07:01:10.877Z,97691.47
2018-09-02T07:02:47.200Z,97693.77
2018-09-02T07:04:25.576Z,97689.22
2018-09-02T07:06:02.498Z,97691.78
2018-09-02T07:07:38.367Z,97689.20
2018-09-02T07:09:14.131Z,97683.09
2018-09-02T07:10:50.170Z,97691.37
2018-09-02T07:12:25.191Z,97689.38
2018-09-02T07:14:00.467Z,97685.95
2018-09-02T07:15:36.941Z,97686.60
2018-09-02T07:17:13.377Z,97689.17
2018-09-02T07:18:49.695Z,97689.76
2018-09-02T07:20:25.682Z,97687.52
2018-09-02T07:22:03.270Z,97689.11
2018-09-02T07:23:43.565Z,97694.35
2018-09-02T07:25:20.737Z,97690.28
2018-09-02T07:26:56.432Z,97690.05
2018-09-02T07:28:33.667Z,97690.27
2018-09-02T07:30:08.923Z,97678.49
2018-09-02T07:31:45.027Z,97682.80
2018-09-02T07:33:21.350Z,97682.32
2018-09-02T07:34:56.940Z,97686.20
2018-09-02T07:36:36.148Z,97685.81
2018-09-02T07:38:11.617Z,97678.82
2018-09-02T07:39:48.192Z,97682.65
2018-09-02T07:41:25.295Z,97676.67
2018-09-02T07:43:04.217Z,97682.23
2018-09-02T07:44:39.718Z,97677.38
2018-09-02T07:46:16.673Z,97687.09
2018-09-02T07:47:52.159Z,97674.63
2018-09-02T07:49:27.841Z,97682.78
2018-09-02T07:51:04.698Z,97684.98
2018-09-02T07:52:40.760Z,97690.53
2018-09-02T07:54:16.369Z,97689.73
2018-09-02T07:55:53.740Z,97687.59
2018-09-02T07:57:28.828Z,97678.53
2018-09-02T07:59:04.898Z,97690.01
2018-09-02T08:00:43.870Z,97696.72
2018-09-02T08:02:20.520Z,97683.42
2018-09-02T08:04:00.549Z,97690.65
2018-09-02T08:05:38.809Z,97684.78
2018-09-02T08:07:16.700Z,97686.16
2018-09-02T08:08:53.639Z,97689.78
2018-09-02T08:10:28.814Z,97694.45
2018-09-02T08:12:08.422Z,97689.39
2018-09-02T08:13:43.289Z,97693.95
2018-09-02T08:15:19.469Z,97695.52
2018-09-02T08:16:57.012Z,97700.08
2018-09-02T08:18:33.378Z,97697.05
2018-09-02T08:20:09.029Z,97691.84
2018-09-02T08:21:45.668Z,97686.77
2018-09-02T08:23:21.226Z,97696.28
2018-09-02T08:24:56.395Z,97693.33
2018-09-02T08:26:31.559Z,97689.73
2018-09-02T08:28:07.009Z,97697.70
2018-09-02T08:29:42.565Z,97688.63
2018-09-02T08:31:18.625Z,97688.02
2018-09-02T08:32:54.185Z,97687.20
2018-09-02T08:34:30.330Z,97679.61
2018-09-02T08:36:09.312Z,97683.11
2018-09-02T08:37:44.771Z,97677.19
2018-09-02T08:39:20.608Z,97682.89
2018-09-02T08:40:56.447Z,97678.28
2018-09-02T08:42:32.067Z,97676.23
2018-09-02T08:44:07.631Z,97671.27
2018-09-02T08:45:44.535Z,97663.17
2018-09-02T08:47:23.816Z,97664.23
2018-09-02T08:49:00.965Z,97655.67
2018-09-02T08:50:39.150Z,97656.52
2018-09-02T08:52:20.427Z,97668.61
2018-09-02T08:53:58.914Z,97662.74
2018-09-02T08:55:36.977Z,97661.16
2018-09-02T08:57:14.204Z,97658.66
2018-09-02T08:58:56.840Z,97657.05
2018-09-02T09:00:32.928Z,97663.59
2018-09-02T09:02:09.071Z,97660.78
2018-09-02T09:03:44.465Z,97658.37
2018-09-02T09:05:21.735Z,97661.91
2018-09-02T09:06:57.600Z,97654.50
2018-09-02T09:08:36.208Z,97658.66
2018-09-02T09:10:14.403Z,97658.79
2018-09-02T09:11:52.318Z,97652.17
2018-09-02T09:13:31.005Z,97650.77
2018-09-02T09:15:08.340Z,97661.63
2018-09-02T09:16:46.612Z,97649.10
2018-09-02T09:18:24.596Z,97655.14
2018-09-02T09:20:07.959Z,97646.19
2018-09-02T09:21:47.501Z,97649.62
2018-09-02T09:23:25.748Z,97650.25
2018-09-02T09:25:04.773Z,97651.45
2018-09-02T09:26:40.994Z,97660.26
2018-09-02T09:28:16.968Z,97651.76
2018-09-02T09:29:52.277Z,97654.47
2018-09-02T09:31:27.743Z,97643.52
2018-09-02T09:33:03.419Z,97645.40
2018-09-02T09:34:39.589Z,97646.06
2018-09-02T09:36:17.640Z,97642.07
2018-09-02T09:37:54.323Z,97639.55
2018-09-02T09:39:30.286Z,97645.91
2018-09-02T09:41:07.143Z,97642.85
2018-09-02T09:42:44.165Z,97646.80
2018-09-02T09:44:21.820Z,97641.16
2018-09-02T09:45:59.163Z,97643.64
2018-09-02T09:47:41.617Z,97645.39
2018-09-02T09:49:20.646Z,97642.64
2018-09-02T09:50:59.425Z,97644.80
2018-09-02T09:52:40.781Z,97643.37
2018-09-02T09:54:16.631Z,97639.89
2018-09-02T09:55:54.461Z,97635.73
2018-09-02T09:57:30.472Z,97631.38
2018-09-02T09:59:13.628Z,97632.18
2018-09-02T10:00:51.654Z,97640.45
2018-09-02T10:02:34.440Z,97639.13
2018-09-02T10:04:09.842Z,97638.44
2018-09-02T10:05:45.289Z,97632.78
2018-09-02T10:07:21.834Z,97635.98
2018-09-02T10:08:57.346Z,97637.94
2018-09-02T10:10:32.381Z,97631.93
2018-09-02T10:12:08.215Z,97628.41
2018-09-02T10:13:44.374Z,97634.84
2018-09-02T10:15:21.053Z,97626.78
2018-09-02T10:16:58.591Z,97621.89
2018-09-02T10:18:35.016Z,97625.92
2018-09-02T10:20:11.446Z,97618.45
2018-09-02T10:21:46.420Z,97618.40
2018-09-02T10:23:21.448Z,97620.63
2018-09-02T10:24:57.426Z,97610.43
2018-09-02T10:26:34.294Z,97616.68
2018-09-02T10:28:09.961Z,97611.56
2018-09-02T10:29:45.693Z,97607.98
2018-09-02T10:31:25.542Z,97608.40
2018-09-02T10:33:02.230Z,97601.84
2018-09-02T10:34:40.048Z,97607.73
2018-09-02T10:36:15.454Z,97598.20
2018-09-02T10:37:50.924Z,97597.58
2018-09-02T10:39:28.439Z,97602.28
2018-09-02T10:41:04.589Z,97598.94
2018-09-02T10:42:39.785Z,97596.05
2018-09-02T10:44:20.644Z,97601.64
2018-09-02T10:45:58.041Z,97592.05
2018-09-02T10:47:33.991Z,97586.64
2018-09-02T10:49:10.197Z,97589.55
2018-09-02T10:50:47.619Z,97589.58
2018-09-02T10:52:24.580Z,97587.55
2018-09-02T10:53:59.913Z,97587.62
2018-09-02T10:55:36.395Z,97585.24
2018-09-02T10:57:11.417Z,97586.23
2018-09-02T10:58:46.811Z,97576.55
2018-09-02T11:00:32.573Z,97580.55
2018-09-02T11:02:08.177Z,97570.56
2018-09-02T11:03:44.936Z,97582.92
2018-09-02T11:05:24.027Z,97578.05
2018-09-02T11:07:02.333Z,97576.69
2018-09-02T11:08:41.534Z,97568.99
2018-09-02T11:10:16.859Z,97572.17
2018-09-02T11:11:57.089Z,97575.23
2018-09-02T11:13:32.890Z,97581.36
2018-09-02T11:15:09.522Z,97578.84
2018-09-02T11:16:49.211Z,97576.75
2018-09-02T11:18:27.898Z,97579.38
2018-09-02T11:20:05.266Z,97580.27
2018-09-02T11:21:45.813Z,97574.28
2018-09-02T11:23:24.477Z,97570.77
2018-09-02T11:25:03.580Z,97570.36
2018-09-02T11:26:39.500Z,97570.30
2018-09-02T11:28:20.601Z,97557.29
2018-09-02T11:29:58.929Z,97556.81
2018-09-02T11:31:36.150Z,97552.71
2018-09-02T11:33:14.518Z,97545.47
2018-09-02T11:34:55.159Z,97550.50
2018-09-02T11:36:33.425Z,97559.91
2018-09-02T11:38:10.554Z,97547.61
2018-09-02T11:39:48.306Z,97545.70
2018-09-02T11:41:25.226Z,97554.69
2018-09-02T11:43:01.175Z,97546.58
2018-09-02T11:44:37.046Z,97553.86
2018-09-02T11:46:12.886Z,97542.55
2018-09-02T11:47:57.601Z,97540.77
2018-09-02T11:49:42.139Z,97556.05
2018-09-02T11:51:22.039Z,97543.05
2018-09-02T11:53:02.857Z,97546.70
2018-09-02T11:54:46.734Z,97538.20
2018-09-02T11:56:27.421Z,97542.94
2018-09-02T11:58:07.829Z,97532.20
2018-09-02T11:59:43.481Z,97534.95
2018-09-02T12:01:22.167Z,97534.36
2018-09-02T12:03:01.277Z,97529.02
2018-09-02T12:04:40.541Z,97523.44
2018-09-02T12:06:19.327Z,97529.69
2018-09-02T12:07:56.788Z,97530.66
2018-09-02T12:09:37.093Z,97528.95
2018-09-02T12:11:14.745Z,97527.42
2018-09-02T12:12:56.008Z,97520.05
2018-09-02T12:14:32.761Z,97526.63
2018-09-02T12:16:08.745Z,97524.57
2018-09-02T12:17:45.765Z,97525.31
2018-09-02T12:19:25.958Z,97525.38
2018-09-02T12:21:02.284Z,97510.58
2018-09-02T12:22:44.543Z,97524.04
2018-09-02T12:24:21.480Z,97519.69
2018-09-02T12:25:57.530Z,97521.67
2018-09-02T12:27:34.142Z,97514.98
2018-09-02T12:29:11.504Z,97517.73
2018-09-02T12:30:47.347Z,97519.57
2018-09-02T12:32:25.145Z,97517.66
2018-09-02T12:34:04.308Z,97522.57
2018-09-02T12:35:40.030Z,97516.68
2018-09-02T12:37:15.859Z,97514.71
2018-09-02T12:38:56.411Z,97514.80
2018-09-02T12:40:57.899Z,97523.31
2018-09-02T12:42:36.260Z,97512.63
2018-09-02T12:44:19.532Z,97509.89
2018-09-02T12:46:01.398Z,97510.87
2018-09-02T12:47:40.473Z,97504.62
2018-09-02T12:49:18.030Z,97506.48
2018-09-02T12:50:57.361Z,97514.30
2018-09-02T12:52:34.168Z,97510.16
2018-09-02T12:54:12.142Z,97497.77
2018-09-02T12:55:52.626Z,97500.05
2018-09-02T12:57:30.142Z,97503.52
2018-09-02T12:59:06.228Z,97496.77
2018-09-02T13:00:42.858Z,97490.98
2018-09-02T13:02:21.566Z,97491.55
2018-09-02T13:04:02.279Z,97493.41
2018-09-02T13:05:38.538Z,97480.85
2018-09-02T13:07:16.814Z,97491.83
2018-09-02T13:08:52.767Z,97490.14
2018-09-02T13:10:30.743Z,97489.93
2018-09-02T13:12:06.741Z,97496.87
2018-09-02T13:13:43.950Z,97497.12
2018-09-02T13:15:20.292Z,97484.02
2018-09-02T13:16:59.287Z,97490.23
2018-09-02T13:18:37.073Z,97484.80
2018-09-02T13:21:58.265Z,97485.39
2018-09-02T13:23:34.626Z,97480.76
2018-09-02T13:25:10.373Z,97474.22
2018-09-02T13:26:47.529Z,97463.80
2018-09-02T13:28:23.997Z,97467.28
2018-09-02T13:29:59.407Z,97464.90
2018-09-02T13:31:38.269Z,97469.61
2018-09-02T13:33:15.186Z,97465.19
2018-09-02T13:34:55.568Z,97467.43
2018-09-02T13:36:31.418Z,97460.47
2018-09-02T13:38:06.966Z,97456.58
2018-09-02T13:39:43.801Z,97461.97
2018-09-02T13:41:22.299Z,97460.38
2018-09-02T13:42:59.214Z,97460.33
2018-09-02T13:44:36.325Z,97457.60
2018-09-02T13:46:12.100Z,97455.55
2018-09-02T13:47:47.420Z,97456.75
2018-09-02T13:49:23.435Z,97456.11
2018-09-02T13:50:59.579Z,97456.26
2018-09-02T13:52:35.155Z,97451.78
2018-09-02T13:54:10.674Z,97456.51
2018-09-02T13:55:46.209Z,97450.97
2018-09-02T13:57:23.850Z,97451.02
2018-09-02T13:59:00.374Z,97448.02
2018-09-02T14:00:37.409Z,97453.55
2018-09-02T14:02:13.196Z,97450.63
2018-09-02T14:03:51.437Z,97444.12
2018-09-02T14:05:30.973Z,97448.31
2018-09-02T14:07:09.080Z,97445.52
2018-09-02T14:08:44.633Z,97445.00
2018-09-02T14:10:25.558Z,97450.03
2018-09-02T14:12:01.811Z,97450.93
2018-09-02T14:13:39.141Z,97451.82
2018-09-02T14:15:21.080Z,97448.53
2018-09-02T14:16:59.517Z,97447.41
2018-09-02T14:18:36.309Z,97449.03
2018-09-02T14:20:13.425Z,97443.55
2018-09-02T14:21:49.993Z,97437.53
2018-09-02T14:23:29.472Z,97447.13
2018-09-02T14:25:09.173Z,97444.22
2018-09-02T14:26:52.623Z,97438.63
2018-09-02T14:28:42.209Z,97433.18
2018-09-02T14:30:23.807Z,97439.55
2018-09-02T14:31:59.385Z,97433.19
2018-09-02T14:33:35.140Z,97423.45
2018-09-02T14:35:12.273Z,97423.45
2018-09-02T14:36:50.988Z,97422.48
2018-09-02T14:38:27.658Z,97418.68
2018-09-02T14:40:04.983Z,97423.96
2018-09-02T14:41:42.816Z,97416.34
2018-09-02T14:43:20.118Z,97415.92
2018-09-02T14:44:56.222Z,97416.27
2018-09-02T14:46:41.084Z,97414.44
2018-09-02T14:48:17.597Z,97414.36
2018-09-02T14:49:55.819Z,97415.52
2018-09-02T14:51:34.367Z,97418.77
2018-09-02T14:53:11.699Z,97419.75
2018-09-02T14:54:47.553Z,97420.03
2018-09-02T14:56:24.731Z,97415.59
2018-09-02T14:58:02.142Z,97418.08
2018-09-02T14:59:38.260Z,97419.60
2018-09-02T15:01:17.730Z,97421.09
2018-09-02T15:02:54.539Z,97421.11
2018-09-02T15:04:34.065Z,97420.11
2018-09-02T15:06:11.115Z,97419.94
2018-09-02T15:07:52.879Z,97429.94
2018-09-02T15:09:33.393Z,97420.56
2018-09-02T15:11:10.209Z,97426.62
2018-09-02T15:12:46.706Z,97422.66
2018-09-02T15:14:24.951Z,97420.40
2018-09-02T15:16:03.074Z,97416.86
2018-09-02T15:17:43.316Z,97422.27
2018-09-02T15:19:20.800Z,97424.75
2018-09-02T15:20:57.025Z,97419.39
2018-09-02T15:22:34.594Z,97421.70
2018-09-02T15:24:14.158Z,97425.05
2018-09-02T15:25:50.151Z,97419.59
2018-09-02T15:27:33.036Z,97425.86
2018-09-02T15:29:10.675Z,97427.97
2018-09-02T15:31:59.640Z,97424.78
2018-09-02T15:33:46.270Z,97427.58
2018-09-02T15:35:22.689Z,97431.49
2018-09-02T15:37:01.318Z,97432.09
2018-09-02T15:38:42.302Z,97430.66
2018-09-02T15:40:21.011Z,97430.10
2018-09-02T15:42:01.703Z,97431.22
2018-09-02T15:43:40.154Z,97430.27
2018-09-02T15:45:23.072Z,97430.95
2018-09-02T15:47:07.087Z,97430.08
2018-09-02T15:48:42.494Z,97430.95
2018-09-02T15:50:19.271Z,97430.86
2018-09-02T15:51:58.239Z,97430.58
2018-09-02T15:55:24.472Z,97429.66
2018-09-02T15:57:05.703Z,97428.12
2018-09-02T15:58:45.599Z,97424.73
2018-09-02T16:00:25.040Z,97427.98
2018-09-02T16:02:03.724Z,97427.47
2018-09-02T16:03:46.891Z,97426.05
2018-09-02T16:05:23.988Z,97424.66
2018-09-02T16:07:00.644Z,97422.44
2018-09-02T16:08:36.739Z,97419.14
2018-09-02T16:11:58.613Z,97421.81
2018-09-02T16:13:37.353Z,97425.16
2018-09-02T16:15:19.516Z,97427.72
2018-09-02T16:16:56.751Z,97423.65
2018-09-02T16:18:38.703Z,97424.34
2018-09-02T16:20:13.768Z,97424.40
2018-09-02T16:21:54.513Z,97430.28
2018-09-02T16:23:33.835Z,97425.50
2018-09-02T16:25:11.165Z,97424.69
2018-09-02T16:26:52.300Z,97423.36
2018-09-02T16:28:32.560Z,97424.69
2018-09-02T16:30:12.763Z,97430.43
2018-09-02T16:31:50.062Z,97419.91
2018-09-02T16:33:27.376Z,97423.79
2018-09-02T16:35:04.754Z,97423.23
2018-09-02T16:36:44.358Z,97426.81
2018-09-02T16:38:25.919Z,97424.19
2018-09-02T16:40:03.687Z,97425.94
2018-09-02T16:41:42.884Z,97418.59
2018-09-02T16:43:21.761Z,97421.98
2018-09-02T16:45:00.319Z,97419.21
2018-09-02T16:46:36.121Z,97421.02
2018-09-02T16:48:17.888Z,97419.35
2018-09-02T16:49:58.560Z,97414.01
2018-09-02T16:51:39.710Z,97420.17
2018-09-02T16:53:16.270Z,97414.20
2018-09-02T16:54:51.500Z,97414.83
2018-09-02T16:56:38.252Z,97413.67
2018-09-02T16:58:17.001Z,97412.67
2018-09-02T16:59:53.694Z,97409.89
2018-09-02T17:01:31.246Z,97414.54
2018-09-02T17:03:10.265Z,97411.28
2018-09-02T17:04:48.965Z,97406.70
2018-09-02T17:06:26.318Z,97408.37
2018-09-02T17:08:04.685Z,97415.05
2018-09-02T17:09:45.751Z,97414.34
2018-09-02T17:11:26.912Z,97411.98
2018-09-02T17:13:04.319Z,97407.41
2018-09-02T17:14:42.262Z,97408.31
2018-09-02T17:16:20.974Z,97398.00
2018-09-02T17:17:56.464Z,97396.23
2018-09-02T17:19:37.085Z,97401.86
2018-09-02T17:21:13.605Z,97395.61
2018-09-02T17:22:51.270Z,97393.80
2018-09-02T17:24:33.260Z,97390.20
2018-09-02T17:26:11.264Z,97395.48
2018-09-02T17:27:49.667Z,97398.62
2018-09-02T17:29:28.532Z,97386.55
2018-09-02T17:31:12.076Z,97389.64
2018-09-02T17:32:53.193Z,97386.66
2018-09-02T17:34:32.731Z,97388.52
2018-09-02T17:36:15.148Z,97385.45
2018-09-02T17:37:58.665Z,97385.17
2018-09-02T17:39:36.939Z,97387.17
2018-09-02T17:41:25.007Z,97390.30
2018-09-02T17:43:05.233Z,97388.63
2018-09-02T17:44:53.741Z,97388.73
2018-09-02T17:46:40.407Z,97393.58
2018-09-02T17:48:20.735Z,97397.92
2018-09-02T17:50:00.978Z,97402.87
2018-09-02T17:51:42.521Z,97399.34
2018-09-02T17:53:21.764Z,97393.81
2018-09-02T17:55:01.383Z,97395.20
2018-09-02T17:56:40.916Z,97392.14
2018-09-02T17:58:17.983Z,97388.28
2018-09-02T17:59:58.531Z,97385.38
2018-09-02T18:01:34.288Z,97388.14
2018-09-02T18:03:12.549Z,97388.47
2018-09-02T18:04:51.002Z,97386.97
2018-09-02T18:06:29.743Z,97387.73
2018-09-02T18:08:09.004Z,97387.23
2018-09-02T18:09:46.186Z,97393.27
2018-09-02T18:11:24.809Z,97395.88
2018-09-02T18:13:00.328Z,97394.50
2018-09-02T18:14:37.890Z,97388.77
2018-09-02T18:16:19.918Z,97392.20
2018-09-02T18:17:56.799Z,97390.83
2018-09-02T18:19:34.691Z,97391.15
2018-09-02T18:21:11.514Z,97393.53
2018-09-02T18:22:49.663Z,97391.95
2018-09-02T18:24:30.303Z,97395.19
2018-09-02T18:26:08.047Z,97402.39
2018-09-02T18:27:52.071Z,97406.35
2018-09-02T18:29:30.334Z,97401.91
2018-09-02T18:31:06.215Z,97404.30
2018-09-02T18:32:48.480Z,97400.16
2018-09-02T18:34:25.694Z,97396.16
2018-09-02T18:36:04.704Z,97398.62
2018-09-02T18:37:46.488Z,97402.63
2018-09-02T18:39:25.622Z,97397.09
2018-09-02T18:41:02.257Z,97398.00
2018-09-02T18:42:40.429Z,97399.68
2018-09-02T18:44:21.892Z,97403.83
2018-09-02T18:45:58.841Z,97404.91
2018-09-02T18:47:35.369Z,97403.68
2018-09-02T18:51:56.378Z,97407.53
2018-09-02T18:53:32.408Z,97410.30
2018-09-02T18:55:09.997Z,97406.94
2018-09-02T18:56:47.664Z,97414.80
2018-09-02T18:58:25.333Z,97410.94
2018-09-02T19:00:08.480Z,97408.17
2018-09-02T19:01:45.611Z,97401.89
2018-09-02T19:03:23.396Z,97395.65
2018-09-02T19:05:01.088Z,97402.73
2018-09-02T19:06:36.886Z,97405.00
2018-09-02T19:08:16.487Z,97403.47
2018-09-02T19:09:52.748Z,97398.56
2018-09-02T19:11:29.581Z,97394.45
2018-09-02T19:13:12.139Z,97394.41
2018-09-02T19:14:50.757Z,97396.41